createdAt,value
2018-01-24T00:01:21.708Z,7.60
2018-01-24T00:03:49.985Z,7.60
2018-01-24T00:06:18.228Z,7.60
2018-01-24T00:08:45.702Z,7.50
2018-01-24T00:11:13.333Z,7.50
2018-01-24T00:13:40.810Z,7.50
2018-01-24T00:16:08.286Z,7.40
2018-01-24T00:18:35.772Z,7.30
2018-01-24T00:21:03.244Z,7.40
2018-01-24T00:23:30.726Z,7.30
2018-01-24T00:25:58.231Z,7.40
2018-01-24T00:28:26.474Z,7.30
2018-01-24T00:30:53.960Z,7.30
2018-01-24T00:33:22.536Z,7.30
2018-01-24T00:35:50.061Z,7.30
2018-01-24T00:38:17.532Z,7.30
2018-01-24T00:40:45.044Z,7.30
2018-01-24T00:43:13.292Z,7.30
2018-01-24T00:45:40.763Z,7.30
2018-01-24T00:48:09.032Z,7.30
2018-01-24T00:50:36.512Z,7.20
2018-01-24T00:53:04.779Z,7.10
2018-01-24T00:55:33.049Z,7.10
2018-01-24T00:58:01.304Z,7.00
2018-01-24T01:00:28.800Z,7.00
2018-01-24T01:02:57.064Z,7.10
2018-01-24T01:05:25.302Z,7.10
2018-01-24T01:07:52.798Z,7.10
2018-01-24T01:10:21.062Z,7.20
2018-01-24T01:12:49.309Z,7.10
2018-01-24T01:15:16.780Z,7.10
2018-01-24T01:17:44.285Z,7.10
2018-01-24T01:20:12.583Z,7.00
2018-01-24T01:22:40.055Z,6.90
2018-01-24T01:25:07.544Z,7.10
2018-01-24T01:27:35.025Z,7.00
2018-01-24T01:30:03.271Z,7.10
2018-01-24T01:32:30.774Z,7.10
2018-01-24T01:34:59.018Z,7.00
2018-01-24T01:37:27.264Z,7.10
2018-01-24T01:39:54.776Z,7.00
2018-01-24T01:42:23.020Z,7.10
2018-01-24T01:44:50.496Z,7.00
2018-01-24T01:47:18.763Z,7.00
2018-01-24T01:49:46.240Z,7.00
2018-01-24T01:52:14.740Z,7.00
2018-01-24T01:54:42.999Z,7.10
2018-01-24T01:57:10.485Z,7.10
2018-01-24T01:59:37.956Z,7.20
2018-01-24T02:02:05.454Z,7.10
2018-01-24T02:04:32.920Z,7.10
2018-01-24T02:07:00.396Z,7.00
2018-01-24T02:09:28.654Z,6.90
2018-01-24T02:11:56.131Z,6.90
2018-01-24T02:14:23.612Z,6.90
2018-01-24T02:16:51.880Z,6.90
2018-01-24T02:19:20.117Z,6.90
2018-01-24T02:21:47.599Z,6.80
2018-01-24T02:24:15.088Z,6.80
2018-01-24T02:26:42.570Z,6.80
2018-01-24T02:29:10.040Z,6.90
2018-01-24T02:31:37.544Z,6.90
2018-01-24T02:34:05.788Z,6.90
2018-01-24T02:36:33.276Z,6.90
2018-01-24T02:39:13.573Z,6.90
2018-01-24T02:41:41.984Z,6.90
2018-01-24T02:44:09.921Z,6.90
2018-01-24T02:46:37.443Z,6.90
2018-01-24T02:49:06.382Z,6.90
2018-01-24T02:51:33.858Z,6.80
2018-01-24T02:54:01.427Z,7.20
2018-01-24T02:56:28.903Z,7.80
2018-01-24T02:58:56.463Z,7.40
2018-01-24T03:01:23.920Z,7.10
2018-01-24T03:03:51.696Z,7.10
2018-01-24T03:06:20.550Z,7.00
2018-01-24T03:08:48.092Z,7.20
2018-01-24T03:11:15.648Z,7.10
2018-01-24T03:13:44.128Z,6.90
2018-01-24T03:16:12.463Z,6.90
2018-01-24T03:18:45.998Z,6.80
2018-01-24T03:21:13.893Z,6.80
2018-01-24T03:23:42.767Z,7.90
2018-01-24T03:26:10.331Z,7.80
2018-01-24T03:28:39.119Z,7.40
2018-01-24T03:31:06.889Z,7.30
2018-01-24T03:33:34.667Z,7.10
2018-01-24T03:36:03.563Z,6.90
2018-01-24T03:38:31.317Z,6.90
2018-01-24T03:40:58.981Z,6.90
2018-01-24T03:43:26.705Z,6.90
2018-01-24T03:45:54.944Z,6.90
2018-01-24T03:48:22.430Z,6.90
2018-01-24T03:50:50.017Z,6.80
2018-01-24T03:53:18.257Z,6.80
2018-01-24T03:55:46.204Z,6.70
2018-01-24T03:58:14.232Z,7.40
2018-01-24T04:00:42.512Z,7.40
2018-01-24T04:03:10.148Z,7.30
2018-01-24T04:05:38.426Z,7.10
2018-01-24T04:08:05.897Z,7.10
2018-01-24T04:10:34.147Z,7.00
2018-01-24T04:13:01.698Z,7.00
2018-01-24T04:15:29.176Z,7.10
2018-01-24T04:17:57.441Z,7.00
2018-01-24T04:20:24.928Z,6.90
2018-01-24T04:22:53.162Z,8.10
2018-01-24T04:25:20.672Z,8.10
2018-01-24T04:27:48.945Z,7.20
2018-01-24T04:30:17.184Z,6.90
2018-01-24T04:32:44.652Z,6.90
2018-01-24T04:35:12.194Z,6.80
2018-01-24T04:37:39.668Z,6.80
2018-01-24T04:40:07.140Z,6.90
2018-01-24T04:42:35.064Z,7.00
2018-01-24T04:45:02.545Z,6.80
2018-01-24T04:47:30.017Z,6.70
2018-01-24T04:49:57.558Z,6.80
2018-01-24T04:52:25.008Z,6.90
2018-01-24T04:54:52.483Z,6.90
2018-01-24T04:57:19.988Z,6.90
2018-01-24T04:59:48.224Z,7.00
2018-01-24T05:02:15.694Z,6.90
2018-01-24T05:04:43.993Z,6.90
2018-01-24T05:07:12.237Z,7.00
2018-01-24T05:09:39.756Z,6.90
2018-01-24T05:12:08.036Z,7.00
2018-01-24T05:14:35.520Z,6.90
2018-01-24T05:17:02.992Z,6.80
2018-01-24T05:19:30.487Z,6.90
2018-01-24T05:21:58.731Z,6.70
2018-01-24T05:24:26.211Z,6.70
2018-01-24T05:26:54.471Z,7.00
2018-01-24T05:29:21.960Z,7.00
2018-01-24T05:31:49.463Z,7.10
2018-01-24T05:34:16.976Z,7.10
2018-01-24T05:36:45.244Z,7.20
2018-01-24T05:39:14.395Z,7.30
2018-01-24T05:41:41.894Z,7.20
2018-01-24T05:44:09.423Z,7.30
2018-01-24T05:46:36.896Z,7.20
2018-01-24T05:49:04.418Z,7.20
2018-01-24T05:51:31.895Z,7.30
2018-01-24T05:53:59.385Z,7.20
2018-01-24T05:56:26.876Z,7.20
2018-01-24T05:58:54.372Z,7.20
2018-01-24T06:01:21.876Z,7.30
2018-01-24T06:03:50.144Z,7.20
2018-01-24T06:06:18.402Z,7.20
2018-01-24T06:08:45.910Z,7.10
2018-01-24T06:11:13.402Z,7.20
2018-01-24T06:13:40.916Z,7.30
2018-01-24T06:16:09.151Z,7.40
2018-01-24T06:18:36.643Z,7.40
2018-01-24T06:21:04.888Z,7.50
2018-01-24T06:23:32.355Z,7.50
2018-01-24T06:25:59.846Z,7.30
2018-01-24T06:28:28.106Z,7.20
2018-01-24T06:30:55.582Z,7.20
2018-01-24T06:33:23.895Z,7.20
2018-01-24T06:35:51.372Z,7.10
2018-01-24T06:38:18.839Z,7.20
2018-01-24T06:40:46.336Z,7.10
2018-01-24T06:43:14.581Z,7.20
2018-01-24T06:45:42.056Z,7.20
2018-01-24T06:48:10.334Z,7.10
2018-01-24T06:50:38.568Z,7.10
2018-01-24T06:53:06.043Z,7.00
2018-01-24T06:55:33.549Z,7.00
2018-01-24T06:58:01.803Z,7.00
2018-01-24T07:00:29.298Z,7.00
2018-01-24T07:02:56.852Z,7.30
2018-01-24T07:05:24.327Z,7.40
2018-01-24T07:07:51.832Z,7.40
2018-01-24T07:10:19.329Z,7.30
2018-01-24T07:13:11.449Z,7.50
2018-01-24T07:15:39.015Z,7.40
2018-01-24T07:18:07.258Z,7.50
2018-01-24T07:20:34.732Z,7.40
2018-01-24T07:23:02.244Z,7.40
2018-01-24T07:25:29.802Z,7.40
2018-01-24T07:27:57.283Z,7.20
2018-01-24T07:30:24.790Z,7.20
2018-01-24T07:32:53.040Z,7.30
2018-01-24T07:35:20.519Z,7.20
2018-01-24T07:37:48.788Z,7.20
2018-01-24T07:40:18.032Z,7.20
2018-01-24T07:42:45.509Z,7.20
2018-01-24T07:45:13.176Z,7.50
2018-01-24T07:47:40.655Z,7.30
2018-01-24T07:50:08.194Z,7.30
2018-01-24T07:52:35.728Z,7.30
2018-01-24T07:55:03.288Z,7.40
2018-01-24T07:57:30.760Z,7.50
2018-01-24T07:59:58.337Z,7.40
2018-01-24T08:02:25.820Z,7.40
2018-01-24T08:04:54.097Z,7.40
2018-01-24T08:07:22.378Z,7.60
2018-01-24T08:09:50.633Z,7.70
2018-01-24T08:12:18.247Z,7.70
2018-01-24T08:14:45.780Z,7.60
2018-01-24T08:17:14.057Z,7.80
2018-01-24T08:19:42.322Z,7.90
2018-01-24T08:22:09.880Z,7.80
2018-01-24T08:24:38.173Z,8.00
2018-01-24T08:27:06.525Z,7.90
2018-01-24T08:29:34.037Z,7.90
2018-01-24T08:32:01.540Z,7.90
2018-01-24T08:34:29.012Z,7.90
2018-01-24T08:36:56.532Z,7.80
2018-01-24T08:39:24.056Z,7.80
2018-01-24T08:41:52.321Z,8.00
2018-01-24T08:44:19.879Z,7.90
2018-01-24T08:46:47.352Z,8.10
2018-01-24T08:49:15.592Z,8.10
2018-01-24T08:51:43.094Z,8.00
2018-01-24T08:54:11.389Z,8.10
2018-01-24T08:56:38.911Z,8.00
2018-01-24T08:59:07.236Z,8.20
2018-01-24T09:01:34.732Z,8.10
2018-01-24T09:04:02.227Z,8.20
2018-01-24T09:06:30.504Z,8.30
2018-01-24T09:08:58.775Z,8.40
2018-01-24T09:11:27.126Z,8.30
2018-01-24T09:13:54.644Z,8.30
2018-01-24T09:16:22.127Z,8.50
2018-01-24T09:18:49.608Z,8.50
2018-01-24T09:21:17.121Z,8.50
2018-01-24T09:23:44.612Z,8.50
2018-01-24T09:26:12.896Z,8.40
2018-01-24T09:28:40.394Z,8.40
2018-01-24T09:31:08.684Z,8.40
2018-01-24T09:33:36.159Z,8.40
2018-01-24T09:36:03.656Z,8.30
2018-01-24T09:38:31.144Z,8.50
2018-01-24T09:40:59.397Z,8.60
2018-01-24T09:43:27.673Z,8.60
2018-01-24T09:45:55.388Z,8.50
2018-01-24T09:48:22.883Z,8.50
2018-01-24T09:50:51.195Z,8.80
2018-01-24T09:53:19.467Z,8.60
2018-01-24T09:55:47.727Z,8.60
2018-01-24T09:58:15.249Z,8.60
2018-01-24T10:00:42.767Z,8.70
2018-01-24T10:03:11.046Z,8.80
2018-01-24T10:05:39.297Z,8.80
2018-01-24T10:08:06.808Z,8.70
2018-01-24T10:10:34.289Z,8.90
2018-01-24T10:13:01.816Z,8.70
2018-01-24T10:15:29.893Z,8.70
2018-01-24T10:17:57.377Z,9.00
2018-01-24T10:20:24.892Z,8.70
2018-01-24T10:22:53.215Z,8.80
2018-01-24T10:25:20.692Z,8.70
2018-01-24T10:27:48.219Z,8.90
2018-01-24T10:30:15.766Z,8.80
2018-01-24T10:32:43.260Z,9.00
2018-01-24T10:35:10.761Z,9.00
2018-01-24T10:37:39.966Z,9.00
2018-01-24T10:40:09.438Z,9.10
2018-01-24T10:42:39.238Z,9.10
2018-01-24T10:45:06.896Z,9.00
2018-01-24T10:47:35.118Z,9.00
2018-01-24T10:50:03.784Z,9.50
2018-01-24T10:52:31.774Z,9.40
2018-01-24T10:54:59.361Z,9.40
2018-01-24T10:57:26.934Z,9.20
2018-01-24T10:59:55.335Z,9.20
2018-01-24T11:02:23.389Z,9.40
2018-01-24T11:04:51.718Z,9.40
2018-01-24T11:07:21.534Z,9.50
2018-01-24T11:09:50.063Z,9.40
2018-01-24T11:12:18.018Z,9.60
2018-01-24T11:14:46.092Z,9.80
2018-01-24T11:17:14.205Z,9.80
2018-01-24T11:19:42.241Z,9.80
2018-01-24T11:22:11.922Z,9.80
2018-01-24T11:24:39.988Z,9.70
2018-01-24T11:27:08.805Z,9.70
2018-01-24T11:29:37.528Z,9.60
2018-01-24T11:32:05.417Z,9.60
2018-01-24T11:34:34.072Z,9.90
2018-01-24T11:37:02.462Z,9.90
2018-01-24T11:39:30.553Z,9.90
2018-01-24T11:41:59.309Z,10.00
2018-01-24T11:44:27.617Z,10.00
2018-01-24T11:46:55.248Z,10.00
2018-01-24T11:49:22.970Z,9.80
2018-01-24T11:51:51.196Z,10.20
2018-01-24T11:54:18.796Z,9.90
2018-01-24T11:56:47.032Z,10.00
2018-01-24T11:59:16.320Z,9.90
2018-01-24T12:01:44.568Z,10.50
2018-01-24T12:04:13.034Z,10.60
2018-01-24T12:06:42.217Z,11.20
2018-01-24T12:09:10.420Z,11.10
2018-01-24T12:11:38.475Z,10.40
2018-01-24T12:14:06.720Z,11.40
2018-01-24T12:16:35.748Z,10.70
2018-01-24T12:19:04.144Z,12.40
2018-01-24T12:21:32.849Z,12.80
2018-01-24T12:24:01.807Z,12.30
2018-01-24T12:26:30.172Z,12.20
2018-01-24T12:28:57.817Z,11.40
2018-01-24T12:31:25.735Z,10.70
2018-01-24T12:33:54.257Z,11.30
2018-01-24T12:36:22.249Z,10.20
2018-01-24T12:38:50.541Z,10.60
2018-01-24T12:41:18.044Z,11.50
2018-01-24T12:43:46.285Z,10.00
2018-01-24T12:46:14.109Z,10.00
2018-01-24T12:48:42.583Z,11.60
2018-01-24T12:51:10.775Z,12.60
2018-01-24T12:53:39.025Z,12.30
2018-01-24T12:56:07.946Z,12.10
2018-01-24T12:58:35.498Z,12.00
2018-01-24T13:01:02.985Z,10.70
2018-01-24T13:03:30.687Z,10.50
2018-01-24T13:05:59.524Z,12.70
2018-01-24T13:08:28.299Z,11.10
2018-01-24T13:10:56.372Z,11.00
2018-01-24T13:13:24.876Z,10.70
2018-01-24T13:15:53.284Z,12.00
2018-01-24T13:18:20.946Z,13.10
2018-01-24T13:20:48.816Z,14.20
2018-01-24T13:23:18.085Z,13.70
2018-01-24T13:25:46.739Z,12.90
2018-01-24T13:28:14.827Z,13.10
2018-01-24T13:30:42.798Z,13.90
2018-01-24T13:33:10.825Z,12.30
2018-01-24T13:35:38.463Z,13.80
2018-01-24T13:38:06.707Z,14.40
2018-01-24T13:40:35.291Z,13.60
2018-01-24T13:43:02.906Z,12.20
2018-01-24T13:45:31.128Z,12.10
2018-01-24T13:47:59.011Z,11.20
2018-01-24T13:50:27.458Z,13.10
2018-01-24T13:52:56.436Z,14.20
2018-01-24T13:55:24.944Z,12.40
2018-01-24T13:57:53.313Z,12.30
2018-01-24T14:00:22.301Z,10.90
2018-01-24T14:02:51.222Z,10.10
2018-01-24T14:05:20.290Z,13.10
2018-01-24T14:07:48.687Z,13.10
2018-01-24T14:10:18.271Z,13.00
2018-01-24T14:12:47.206Z,13.50
2018-01-24T14:15:15.327Z,13.50
2018-01-24T14:17:43.245Z,12.20
2018-01-24T14:20:11.317Z,12.10
2018-01-24T14:22:39.022Z,12.70
2018-01-24T14:25:08.216Z,11.80
2018-01-24T14:27:36.600Z,11.80
2018-01-24T14:30:04.645Z,11.10
2018-01-24T14:32:33.005Z,11.20
2018-01-24T14:35:01.060Z,11.60
2018-01-24T14:37:29.563Z,13.60
2018-01-24T14:39:57.536Z,13.50
2018-01-24T14:42:25.356Z,13.10
2018-01-24T14:44:53.854Z,14.20
2018-01-24T14:47:22.635Z,11.40
2018-01-24T14:49:51.323Z,11.40
2018-01-24T14:52:20.153Z,11.00
2018-01-24T14:54:48.132Z,11.00
2018-01-24T14:57:15.897Z,10.80
2018-01-24T14:59:43.446Z,10.60
2018-01-24T15:02:12.132Z,10.50
2018-01-24T15:04:39.994Z,10.40
2018-01-24T15:07:08.456Z,10.30
2018-01-24T15:09:37.375Z,10.40
2018-01-24T15:12:06.035Z,10.30
2018-01-24T15:14:34.750Z,10.10
2018-01-24T15:17:02.342Z,10.00
2018-01-24T15:19:29.982Z,10.10
2018-01-24T15:21:57.728Z,10.10
2018-01-24T15:24:26.092Z,10.10
2018-01-24T15:26:55.216Z,10.00
2018-01-24T15:29:23.572Z,10.00
2018-01-24T15:31:53.107Z,10.10
2018-01-24T15:34:21.071Z,10.00
2018-01-24T15:36:48.736Z,10.10
2018-01-24T15:39:17.558Z,10.10
2018-01-24T15:41:45.771Z,10.00
2018-01-24T15:44:15.752Z,10.00
2018-01-24T15:46:43.961Z,9.90
2018-01-24T15:49:11.869Z,9.80
2018-01-24T15:51:39.945Z,9.80
2018-01-24T15:54:07.513Z,9.80
2018-01-24T15:56:34.991Z,9.80
2018-01-24T15:59:02.702Z,9.80
2018-01-24T16:01:30.207Z,9.70
2018-01-24T16:03:57.734Z,9.80
2018-01-24T16:06:25.209Z,9.80
2018-01-24T16:08:52.722Z,9.70
2018-01-24T16:11:20.968Z,9.70
2018-01-24T16:13:48.463Z,9.60
2018-01-24T16:16:16.729Z,9.70
2018-01-24T16:18:44.227Z,9.60
2018-01-24T16:21:11.791Z,9.70
2018-01-24T16:23:39.299Z,9.60
2018-01-24T16:26:06.896Z,9.60
2018-01-24T16:28:34.457Z,9.70
2018-01-24T16:31:02.101Z,9.70
2018-01-24T16:33:30.373Z,9.70
2018-01-24T16:35:58.635Z,9.60
2018-01-24T16:38:26.132Z,9.60
2018-01-24T16:40:53.620Z,9.50
2018-01-24T16:43:21.229Z,9.40
2018-01-24T16:45:49.491Z,9.10
2018-01-24T16:48:16.981Z,9.10
2018-01-24T16:50:45.236Z,9.30
2018-01-24T16:53:12.741Z,9.20
2018-01-24T16:55:40.244Z,9.40
2018-01-24T16:58:07.720Z,9.30
2018-01-24T17:00:36.013Z,9.20
2018-01-24T17:03:04.277Z,9.10
2018-01-24T17:05:32.535Z,9.40
2018-01-24T17:08:00.076Z,9.30
2018-01-24T17:10:27.788Z,9.50
2018-01-24T17:12:59.500Z,8.90
2018-01-24T17:15:28.097Z,8.80
2018-01-24T17:17:55.588Z,8.70
2018-01-24T17:20:28.014Z,9.10
2018-01-24T17:22:58.417Z,9.00
2018-01-24T17:25:26.292Z,9.10
2018-01-24T17:27:53.773Z,8.60
2018-01-24T17:30:23.482Z,8.30
2018-01-24T17:32:51.232Z,8.10
2018-01-24T17:35:18.903Z,8.30
2018-01-24T17:37:46.876Z,8.60
2018-01-24T17:40:22.196Z,8.80
2018-01-24T17:42:51.701Z,8.80
2018-01-24T17:45:21.595Z,8.70
2018-01-24T17:47:50.739Z,8.70
2018-01-24T17:50:19.166Z,8.50
2018-01-24T17:52:48.111Z,8.60
2018-01-24T17:55:15.972Z,8.60
2018-01-24T18:02:43.240Z,8.20
2018-01-24T18:05:11.259Z,8.00
2018-01-24T18:07:39.751Z,8.10
2018-01-24T18:10:07.600Z,8.20
2018-01-24T18:12:35.167Z,8.20
2018-01-24T18:15:02.737Z,8.30
2018-01-24T18:17:30.252Z,8.20
2018-01-24T18:19:58.713Z,8.30
2018-01-24T18:22:26.216Z,8.20
2018-01-24T18:24:53.739Z,8.20
2018-01-24T18:27:21.389Z,8.20
2018-01-24T18:29:49.662Z,7.90
2018-01-24T18:32:18.121Z,7.90
2018-01-24T18:34:45.680Z,7.80
2018-01-24T18:37:13.156Z,7.90
2018-01-24T18:39:41.587Z,7.80
2018-01-24T18:42:09.491Z,7.70
2018-01-24T18:44:37.795Z,7.70
2018-01-24T18:47:05.256Z,7.60
2018-01-24T18:49:34.309Z,7.80
2018-01-24T18:52:01.808Z,7.70
2018-01-24T18:54:30.415Z,7.70
2018-01-24T18:56:57.939Z,7.60
2018-01-24T18:59:26.186Z,7.30
2018-01-24T19:01:53.723Z,7.20
2018-01-24T19:04:21.284Z,7.10
2018-01-24T19:06:48.768Z,7.20
2018-01-24T19:09:16.266Z,7.00
2018-01-24T19:11:44.922Z,7.10
2018-01-24T19:14:12.416Z,7.00
2018-01-24T19:16:40.676Z,6.70
2018-01-24T19:19:08.480Z,6.70
2018-01-24T19:21:35.992Z,7.10
2018-01-24T19:24:04.228Z,7.00
2018-01-24T19:26:31.732Z,7.00
2018-01-24T19:28:59.241Z,6.90
2018-01-24T19:31:26.719Z,6.90
2018-01-24T19:33:54.209Z,6.90
2018-01-24T19:36:21.811Z,6.60
2018-01-24T19:38:49.285Z,6.60
2018-01-24T19:41:16.788Z,6.70
2018-01-24T19:43:44.298Z,7.00
2018-01-24T19:46:11.903Z,7.20
2018-01-24T19:48:39.395Z,7.10
2018-01-24T19:51:07.690Z,6.70
2018-01-24T19:53:35.191Z,6.60
2018-01-24T19:56:02.685Z,6.50
2018-01-24T19:58:30.928Z,6.60
2018-01-24T20:00:59.252Z,6.50
2018-01-24T20:03:26.760Z,6.50
2018-01-24T20:05:54.228Z,6.50
2018-01-24T20:08:21.699Z,6.80
2018-01-24T20:10:49.186Z,6.90
2018-01-24T20:15:56.360Z,6.50
2018-01-24T20:18:23.833Z,6.50
2018-01-24T20:20:52.111Z,6.40
2018-01-24T20:23:20.413Z,6.30
2018-01-24T20:25:47.976Z,6.30
2018-01-24T20:28:15.532Z,6.40
2018-01-24T20:30:43.162Z,6.30
2018-01-24T20:33:11.419Z,6.40
2018-01-24T20:35:38.907Z,6.30
2018-01-24T20:38:07.314Z,6.30
2018-01-24T20:40:34.859Z,6.20
2018-01-24T20:43:02.440Z,6.20
2018-01-24T20:45:30.072Z,6.20
2018-01-24T20:47:58.321Z,6.60
2018-01-24T20:50:25.949Z,6.60
2018-01-24T20:52:53.681Z,6.20
2018-01-24T20:55:21.184Z,6.10
2018-01-24T20:57:48.655Z,6.10
2018-01-24T21:00:16.549Z,6.10
2018-01-24T21:02:44.028Z,6.00
2018-01-24T21:05:12.315Z,6.10
2018-01-24T21:07:39.812Z,6.10
2018-01-24T21:10:07.324Z,6.40
2018-01-24T21:12:35.561Z,6.50
2018-01-24T21:15:03.077Z,6.50
2018-01-24T21:17:30.638Z,6.30
2018-01-24T21:19:58.108Z,6.10
2018-01-24T21:22:25.621Z,6.30
2018-01-24T21:24:53.105Z,6.40
2018-01-24T21:27:20.696Z,6.30
2018-01-24T21:29:59.927Z,6.30
2018-01-24T21:32:39.203Z,6.30
2018-01-24T21:35:18.440Z,6.30
2018-01-24T21:37:45.921Z,6.20
2018-01-24T21:40:14.243Z,6.30
2018-01-24T21:42:41.764Z,6.20
2018-01-24T21:45:09.251Z,6.20
2018-01-24T21:47:36.760Z,6.20
2018-01-24T21:50:05.004Z,6.20
2018-01-24T21:52:32.509Z,6.10
2018-01-24T21:55:00.772Z,5.80
2018-01-24T21:57:29.055Z,5.90
2018-01-24T21:59:56.520Z,5.90
2018-01-24T22:02:24.808Z,5.80
2018-01-24T22:04:53.047Z,5.70
2018-01-24T22:07:20.544Z,5.70
2018-01-24T22:09:48.792Z,6.00
2018-01-24T22:12:16.268Z,6.00
2018-01-24T22:14:44.533Z,6.00
2018-01-24T22:17:12.008Z,5.90
2018-01-24T22:19:40.247Z,5.80
2018-01-24T22:22:07.740Z,5.80
2018-01-24T22:24:35.980Z,5.80
2018-01-24T22:27:03.477Z,5.70
2018-01-24T22:29:31.744Z,6.00
2018-01-24T22:32:00.021Z,6.10
2018-01-24T22:34:28.279Z,6.10
2018-01-24T22:36:55.764Z,6.00
2018-01-24T22:39:24.008Z,5.90
2018-01-24T22:41:51.508Z,5.80
2018-01-24T22:44:19.744Z,5.60
2018-01-24T22:46:47.220Z,5.60
2018-01-24T22:49:14.710Z,5.70
2018-01-24T22:51:42.181Z,6.00
2018-01-24T22:54:09.668Z,5.90
2018-01-24T22:59:30.148Z,5.60
2018-01-24T23:01:57.643Z,5.50
2018-01-24T23:04:25.167Z,5.70
2018-01-24T23:06:52.657Z,5.50
2018-01-24T23:09:20.140Z,5.80
2018-01-24T23:11:47.627Z,5.60
2018-01-24T23:14:15.864Z,5.60
2018-01-24T23:16:43.340Z,5.60
2018-01-24T23:19:10.831Z,5.60
2018-01-24T23:21:39.064Z,5.60
2018-01-24T23:24:06.581Z,5.60
2018-01-24T23:26:34.840Z,5.70
2018-01-24T23:29:03.151Z,5.70
2018-01-24T23:31:30.654Z,5.60
2018-01-24T23:33:58.124Z,5.80
2018-01-24T23:36:26.390Z,5.80
2018-01-24T23:38:54.666Z,5.60
2018-01-24T23:41:22.141Z,5.60
2018-01-24T23:43:50.381Z,5.60
2018-01-24T23:46:17.875Z,5.50
2018-01-24T23:48:46.109Z,5.80
2018-01-24T23:51:13.633Z,5.70
2018-01-24T23:53:41.849Z,5.90
2018-01-24T23:56:09.335Z,5.90
2018-01-24T23:58:36.835Z,5.90
